Time;durP1;ratioP1;P1;durP2;ratioP2;P2;SDS_P1;SDS_P2;PMS_P1;PMS_P2;Temp;Humidity;BMP_temperature;BMP_pressure;BME280_temperature;BME280_humidity;BME280_pressure;Samples;Min_cycle;Max_cycle;Signal;HPM_P1;HPM_P2
2023/07/23 00:00:18;;;;;;;;;;;;;;;;;;4976306;28;8658;-85
2023/07/23 00:02:43;;;;;;;;;;;;;;;;;;4976014;28;7191;-84
2023/07/23 00:05:09;;;;;;;;;;;;;;;;;;4976175;28;8540;-84
2023/07/23 00:07:35;;;;;;;;;;;;;;;;;;4975842;28;8374;-83
2023/07/23 00:10:00;;;;;;;;;;;;;;;;;;4974443;28;7480;-84
2023/07/23 00:12:26;;;;;;;;;;;;;;;;;;4964866;28;8884;-84
2023/07/23 00:14:52;;;;;;;;;;;;;;;;;;4962365;28;7489;-83
2023/07/23 00:17:17;;;;;;;;;;;;;;;;;;4957616;28;8445;-82
2023/07/23 00:19:43;;;;;;;;;;;;;;;;;;4956866;28;8526;-84
2023/07/23 00:22:08;;;;;;;;;;;;;;;;;;4957465;28;8472;-85
2023/07/23 00:24:34;;;;;;;;;;;;;;;;;;4957766;28;7283;-85
2023/07/23 00:26:59;;;;;;;;;;;;;;;;;;4957265;28;8774;-85
2023/07/23 00:29:25;;;;;;;;;;;;;;;;;;4956949;28;8454;-85
2023/07/23 00:31:50;;;;;;;;;;;;;;;;;;4957229;28;8482;-85
2023/07/23 00:34:16;;;;;;;;;;;;;;;;;;4956971;28;7090;-83
2023/07/23 00:36:41;;;;;;;;;;;;;;;;;;4957113;28;8433;-85
2023/07/23 00:39:07;;;;;;;;;;;;;;;;;;4957158;28;8532;-84
2023/07/23 00:41:32;;;;;;;;;;;;;;;;;;4957012;28;8417;-84
2023/07/23 00:43:58;;;;;;;;;;;;;;;;;;4956918;28;8431;-84
2023/07/23 00:46:24;;;;;;;;;;;;;;;;;;4957001;28;8405;-84
2023/07/23 00:48:49;;;;;;;;;;;;;;;;;;4956608;28;8369;-84
2023/07/23 00:51:15;;;;;;;;;;;;;;;;;;4956234;28;8070;-83
2023/07/23 00:53:41;;;;;;;;;;;;;;;;;;4956511;28;8372;-84
2023/07/23 00:56:07;;;;;;;;;;;;;;;;;;4956387;28;8714;-84
2023/07/23 00:58:33;;;;;;;;;;;;;;;;;;4972734;28;7075;-84
2023/07/23 01:01:00;;;;;;;;;;;;;;;;;;4956760;28;9061;-83
2023/07/23 01:03:26;;;;;;;;;;;;;;;;;;4955636;28;7083;-85
2023/07/23 01:05:58;;;;;;;;;;;;;;;;;;4956279;28;6862;-85
2023/07/23 01:08:23;;;;;;;;;;;;;;;;;;4956522;28;9371;-84
2023/07/23 01:10:49;;;;;;;;;;;;;;;;;;4957961;28;8415;-84
2023/07/23 01:13:15;;;;;;;;;;;;;;;;;;4968799;28;7154;-83
2023/07/23 01:15:41;;;;;;;;;;;;;;;;;;4956234;28;7086;-83
2023/07/23 01:18:08;;;;;;;;;;;;;;;;;;4956164;28;8394;-83
2023/07/23 01:20:34;;;;;;;;;;;;;;;;;;4955889;28;7093;-85
2023/07/23 01:23:00;;;;;;;;;;;;;;;;;;4955766;28;7379;-83
2023/07/23 01:25:26;;;;;;;;;;;;;;;;;;4955992;28;7155;-82
2023/07/23 01:27:51;;;;;;;;;;;;;;;;;;4956053;28;7425;-84
2023/07/23 01:30:17;;;;;;;;;;;;;;;;;;4955767;28;8499;-84
2023/07/23 01:32:43;;;;;;;;;;;;;;;;;;4955879;28;8826;-84
2023/07/23 01:35:11;;;;;;;;;;;;;;;;;;4955698;28;8356;-80
2023/07/23 01:37:37;;;;;;;;;;;;;;;;;;4957563;28;7293;-83
2023/07/23 01:40:03;;;;;;;;;;;;;;;;;;4971909;28;7246;-83
2023/07/23 01:42:31;;;;;;;;;;;;;;;;;;4971913;28;8468;-82
2023/07/23 01:45:00;;;;;;;;;;;;;;;;;;4988012;28;7119;-83
2023/07/23 01:47:26;;;;;;;;;;;;;;;;;;4980591;28;8970;-85
2023/07/23 01:49:52;;;;;;;;;;;;;;;;;;4979027;28;7259;-86
2023/07/23 01:52:17;;;;;;;;;;;;;;;;;;4978515;28;8520;-83
2023/07/23 01:54:43;;;;;;;;;;;;;;;;;;4980221;28;7090;-83
2023/07/23 01:57:08;;;;;;;;;;;;;;;;;;4980169;28;7198;-84
2023/07/23 01:59:34;;;;;;;;;;;;;;;;;;4973359;28;8452;-84
2023/07/23 02:02:00;;;;;;;;;;;;;;;;;;4969895;28;8534;-84
2023/07/23 02:04:25;;;;;;;;;;;;;;;;;;4969734;28;7227;-83
2023/07/23 02:06:51;;;;;;;;;;;;;;;;;;4969450;28;8478;-84
2023/07/23 02:09:16;;;;;;;;;;;;;;;;;;4969317;28;7176;-82
2023/07/23 02:11:42;;;;;;;;;;;;;;;;;;4969504;28;7039;-84
2023/07/23 02:14:08;;;;;;;;;;;;;;;;;;4968958;28;7159;-84
2023/07/23 02:16:34;;;;;;;;;;;;;;;;;;4970008;28;8869;-84
2023/07/23 02:19:00;;;;;;;;;;;;;;;;;;4970185;28;8530;-84
2023/07/23 02:21:25;;;;;;;;;;;;;;;;;;4970025;28;8502;-84
2023/07/23 02:23:51;;;;;;;;;;;;;;;;;;4970249;28;7169;-84
2023/07/23 02:26:17;;;;;;;;;;;;;;;;;;4970143;28;8591;-83
2023/07/23 02:28:43;;;;;;;;;;;;;;;;;;4970214;28;7079;-84
2023/07/23 02:31:10;;;;;;;;;;;;;;;;;;4970373;28;7158;-84
2023/07/23 02:33:35;;;;;;;;;;;;;;;;;;4969915;28;7104;-83
2023/07/23 02:36:01;;;;;;;;;;;;;;;;;;4969973;28;8393;-83
2023/07/23 02:38:26;;;;;;;;;;;;;;;;;;4969883;28;8477;-82
2023/07/23 02:40:56;;;;;;;;;;;;;;;;;;4969949;28;7068;-84
2023/07/23 02:43:22;;;;;;;;;;;;;;;;;;4970005;28;8477;-84
2023/07/23 02:45:47;;;;;;;;;;;;;;;;;;4970484;28;7077;-84
2023/07/23 02:48:13;;;;;;;;;;;;;;;;;;4969728;28;7289;-85
2023/07/23 02:50:39;;;;;;;;;;;;;;;;;;4970097;28;8345;-83
2023/07/23 02:53:05;;;;;;;;;;;;;;;;;;4969806;28;7427;-84
2023/07/23 02:55:31;;;;;;;;;;;;;;;;;;4969794;28;7246;-82
2023/07/23 02:57:57;;;;;;;;;;;;;;;;;;4969912;28;8606;-85
2023/07/23 03:00:23;;;;;;;;;;;;;;;;;;4970145;28;7104;-85
2023/07/23 03:02:49;;;;;;;;;;;;;;;;;;4969896;28;9264;-83
2023/07/23 03:05:15;;;;;;;;;;;;;;;;;;4969880;28;8449;-84
2023/07/23 03:07:40;;;;;;;;;;;;;;;;;;4970036;28;8489;-85
2023/07/23 03:10:06;;;;;;;;;;;;;;;;;;4970029;28;7465;-83
2023/07/23 03:12:32;;;;;;;;;;;;;;;;;;4970106;28;8438;-84
2023/07/23 03:14:57;;;;;;;;;;;;;;;;;;4969810;28;8696;-84
2023/07/23 03:17:23;;;;;;;;;;;;;;;;;;4953568;29;7155;-84
2023/07/23 03:19:49;;;;;;;;;;;;;;;;;;4969619;28;7278;-85
2023/07/23 03:22:14;;;;;;;;;;;;;;;;;;4969922;28;8489;-83
2023/07/23 03:24:40;;;;;;;;;;;;;;;;;;4969831;28;8545;-84
2023/07/23 03:27:05;;;;;;;;;;;;;;;;;;4973005;28;8332;-83
2023/07/23 03:29:31;;;;;;;;;;;;;;;;;;4973582;28;8755;-83
2023/07/23 03:31:56;;;;;;;;;;;;;;;;;;4973368;28;8571;-84
2023/07/23 03:34:22;;;;;;;;;;;;;;;;;;4973272;28;8388;-84
2023/07/23 03:36:48;;;;;;;;;;;;;;;;;;4973698;28;8443;-84
2023/07/23 03:39:16;;;;;;;;;;;;;;;;;;4973209;28;8357;-84
2023/07/23 03:41:42;;;;;;;;;;;;;;;;;;4973199;28;8519;-84
2023/07/23 03:44:08;;;;;;;;;;;;;;;;;;4973294;28;8788;-82
2023/07/23 03:46:41;;;;;;;;;;;;;;;;;;4973073;28;8521;-85
2023/07/23 03:49:06;;;;;;;;;;;;;;;;;;4972952;28;8475;-85
2023/07/23 03:51:32;;;;;;;;;;;;;;;;;;4973109;28;8459;-84
2023/07/23 03:53:57;;;;;;;;;;;;;;;;;;4973370;28;6911;-84
2023/07/23 03:56:23;;;;;;;;;;;;;;;;;;4972890;28;8749;-85
2023/07/23 03:58:48;;;;;;;;;;;;;;;;;;4972847;28;7230;-84
2023/07/23 04:01:14;;;;;;;;;;;;;;;;;;4972952;28;8389;-82
2023/07/23 04:03:39;;;;;;;;;;;;;;;;;;4972455;28;7095;-84
2023/07/23 04:06:04;;;;;;;;;;;;;;;;;;4972784;28;6873;-84
2023/07/23 04:08:30;;;;;;;;;;;;;;;;;;4972989;28;7117;-84
2023/07/23 04:10:56;;;;;;;;;;;;;;;;;;4973003;28;8444;-84
2023/07/23 04:13:21;;;;;;;;;;;;;;;;;;4972852;28;7254;-85
2023/07/23 04:15:47;;;;;;;;;;;;;;;;;;4972608;28;8459;-84
2023/07/23 04:18:13;;;;;;;;;;;;;;;;;;4972806;28;7197;-84
2023/07/23 04:20:39;;;;;;;;;;;;;;;;;;4972233;28;7239;-84
2023/07/23 04:23:05;;;;;;;;;;;;;;;;;;4972197;28;7203;-83
2023/07/23 04:25:31;;;;;;;;;;;;;;;;;;4972527;28;7415;-85
2023/07/23 04:27:56;;;;;;;;;;;;;;;;;;4974741;28;8818;-84
2023/07/23 04:30:21;;;;;;;;;;;;;;;;;;4982418;28;9414;-83
2023/07/23 04:32:47;;;;;;;;;;;;;;;;;;4980958;28;8492;-83
2023/07/23 04:35:13;;;;;;;;;;;;;;;;;;4980547;28;7083;-85
2023/07/23 04:37:38;;;;;;;;;;;;;;;;;;4979743;28;8492;-84
2023/07/23 04:40:04;;;;;;;;;;;;;;;;;;4977169;28;8441;-82
2023/07/23 04:42:29;;;;;;;;;;;;;;;;;;4971978;28;7134;-84
2023/07/23 04:44:55;;;;;;;;;;;;;;;;;;4971980;28;8535;-85
2023/07/23 04:47:20;;;;;;;;;;;;;;;;;;4971495;28;7393;-84
2023/07/23 04:49:46;;;;;;;;;;;;;;;;;;4971993;28;8497;-83
2023/07/23 04:52:11;;;;;;;;;;;;;;;;;;4972253;28;6863;-85
2023/07/23 04:54:37;;;;;;;;;;;;;;;;;;4971999;28;7218;-86
2023/07/23 04:57:03;;;;;;;;;;;;;;;;;;4972172;28;8349;-82
2023/07/23 04:59:28;;;;;;;;;;;;;;;;;;4971623;28;8850;-84
2023/07/23 05:01:54;;;;;;;;;;;;;;;;;;4971424;28;7232;-84
2023/07/23 05:04:20;;;;;;;;;;;;;;;;;;4971820;28;7092;-84
2023/07/23 05:06:45;;;;;;;;;;;;;;;;;;4971490;28;8469;-84
2023/07/23 05:09:10;;;;;;;;;;;;;;;;;;4971531;28;7235;-84
2023/07/23 05:11:36;;;;;;;;;;;;;;;;;;4971514;28;8712;-83
2023/07/23 05:14:01;;;;;;;;;;;;;;;;;;4971565;28;7299;-84
2023/07/23 05:16:27;;;;;;;;;;;;;;;;;;4971295;28;8384;-83
2023/07/23 05:18:52;;;;;;;;;;;;;;;;;;4971632;28;8461;-83
2023/07/23 05:21:18;;;;;;;;;;;;;;;;;;4971308;28;8537;-84
2023/07/23 05:23:43;;;;;;;;;;;;;;;;;;4971468;28;8756;-84
2023/07/23 05:26:09;;;;;;;;;;;;;;;;;;4971531;28;8375;-84
2023/07/23 05:28:34;;;;;;;;;;;;;;;;;;4971491;28;7091;-84
2023/07/23 05:31:00;;;;;;;;;;;;;;;;;;4971036;28;8364;-84
2023/07/23 05:33:26;;;;;;;;;;;;;;;;;;4971116;28;8741;-83
2023/07/23 05:35:52;;;;;;;;;;;;;;;;;;4971230;28;7377;-83
2023/07/23 05:38:18;;;;;;;;;;;;;;;;;;4970952;28;8493;-83
2023/07/23 05:40:51;;;;;;;;;;;;;;;;;;4970994;28;8959;-84
2023/07/23 05:43:17;;;;;;;;;;;;;;;;;;4970910;28;8488;-84
2023/07/23 05:45:43;;;;;;;;;;;;;;;;;;4970689;28;8383;-84
2023/07/23 05:48:08;;;;;;;;;;;;;;;;;;4970130;28;7225;-83
2023/07/23 05:50:34;;;;;;;;;;;;;;;;;;4970510;28;7211;-83
2023/07/23 05:52:59;;;;;;;;;;;;;;;;;;4970835;28;7267;-84
2023/07/23 05:55:25;;;;;;;;;;;;;;;;;;4970732;28;8535;-84
2023/07/23 05:57:51;;;;;;;;;;;;;;;;;;4970791;28;7205;-84
2023/07/23 06:00:16;;;;;;;;;;;;;;;;;;4970519;28;8462;-84
2023/07/23 06:02:42;;;;;;;;;;;;;;;;;;4970659;28;7301;-84
2023/07/23 06:05:07;;;;;;;;;;;;;;;;;;4970624;28;6896;-84
2023/07/23 06:07:33;;;;;;;;;;;;;;;;;;4970831;28;7463;-81
2023/07/23 06:09:59;;;;;;;;;;;;;;;;;;4970635;28;8600;-83
2023/07/23 06:12:25;;;;;;;;;;;;;;;;;;4970515;28;7123;-84
2023/07/23 06:14:50;;;;;;;;;;;;;;;;;;4970590;28;7183;-83
2023/07/23 06:17:16;;;;;;;;;;;;;;;;;;4970036;28;8490;-83
2023/07/23 06:19:41;;;;;;;;;;;;;;;;;;4970248;28;7384;-82
2023/07/23 06:22:07;;;;;;;;;;;;;;;;;;4970245;28;7083;-84
2023/07/23 06:24:32;;;;;;;;;;;;;;;;;;4970177;28;7575;-84
2023/07/23 06:26:58;;;;;;;;;;;;;;;;;;4970262;28;7282;-84
2023/07/23 06:29:25;;;;;;;;;;;;;;;;;;4970483;28;8480;-83
2023/07/23 06:31:51;;;;;;;;;;;;;;;;;;4969953;28;8874;-84
2023/07/23 06:34:16;;;;;;;;;;;;;;;;;;4969732;28;8634;-83
2023/07/23 06:36:42;;;;;;;;;;;;;;;;;;4969789;28;8633;-83
2023/07/23 06:39:08;;;;;;;;;;;;;;;;;;4969488;28;7355;-83
2023/07/23 06:41:33;;;;;;;;;;;;;;;;;;4969082;28;7121;-85
2023/07/23 06:43:59;;;;;;;;;;;;;;;;;;4968841;28;8739;-84
2023/07/23 06:46:25;;;;;;;;;;;;;;;;;;4969193;28;8932;-84
2023/07/23 06:48:50;;;;;;;;;;;;;;;;;;4969442;28;7451;-85
2023/07/23 06:51:16;;;;;;;;;;;;;;;;;;4969319;28;8501;-83
2023/07/23 06:53:43;;;;;;;;;;;;;;;;;;4969314;28;8490;-85
2023/07/23 06:56:10;;;;;;;;;;;;;;;;;;4968738;28;8386;-84
2023/07/23 06:58:37;;;;;;;;;;;;;;;;;;4969348;28;8491;-84
2023/07/23 07:01:04;;;;;;;;;;;;;;;;;;4970583;28;8675;-84
2023/07/23 07:03:30;;;;;;;;;;;;;;;;;;4972539;28;7290;-83
2023/07/23 07:05:55;;;;;;;;;;;;;;;;;;4972139;28;7062;-84
2023/07/23 07:08:21;;;;;;;;;;;;;;;;;;4971993;28;7829;-83
2023/07/23 07:10:47;;;;;;;;;;;;;;;;;;4972019;28;8347;-84
2023/07/23 07:13:13;;;;;;;;;;;;;;;;;;4972459;28;7133;-83
2023/07/23 07:15:42;;;;;;;;;;;;;;;;;;4983533;28;8770;-85
2023/07/23 07:18:08;;;;;;;;;;;;;;;;;;4975042;28;8522;-84
2023/07/23 07:20:33;;;;;;;;;;;;;;;;;;4975407;28;7406;-87
2023/07/23 07:22:58;;;;;;;;;;;;;;;;;;4975402;28;8938;-82
2023/07/23 07:25:24;;;;;;;;;;;;;;;;;;4975142;28;7128;-82
2023/07/23 07:27:50;;;;;;;;;;;;;;;;;;4975404;28;7111;-83
2023/07/23 07:30:15;;;;;;;;;;;;;;;;;;4975373;28;8490;-85
2023/07/23 07:32:41;;;;;;;;;;;;;;;;;;4975627;28;8748;-82
2023/07/23 07:35:06;;;;;;;;;;;;;;;;;;4974891;28;7166;-83
2023/07/23 07:37:32;;;;;;;;;;;;;;;;;;4927971;28;1365039;-78
2023/07/23 07:39:58;;;;;;;;;;;;;;;;;;4976029;28;8488;-78
2023/07/23 07:42:24;;;;;;;;;;;;;;;;;;4976513;28;7266;-84
2023/07/23 07:44:49;;;;;;;;;;;;;;;;;;4976037;28;7105;-78
2023/07/23 07:47:15;;;;;;;;;;;;;;;;;;4976206;28;7317;-78
2023/07/23 07:49:41;;;;;;;;;;;;;;;;;;4975862;28;7257;-79
2023/07/23 07:52:06;;;;;;;;;;;;;;;;;;4975953;28;7131;-77
2023/07/23 07:54:35;;;;;;;;;;;;;;;;;;4975842;28;8870;-77
2023/07/23 07:57:01;;;;;;;;;;;;;;;;;;4975828;28;7157;-77
2023/07/23 07:59:28;;;;;;;;;;;;;;;;;;4975826;28;7141;-78
2023/07/23 08:01:54;;;;;;;;;;;;;;;;;;4975858;28;7151;-78
2023/07/23 08:04:19;;;;;;;;;;;;;;;;;;4975879;28;8864;-76
2023/07/23 08:06:45;;;;;;;;;;;;;;;;;;4975714;28;8530;-79
2023/07/23 08:09:13;;;;;;;;;;;;;;;;;;4975814;28;9029;-78
2023/07/23 08:11:39;;;;;;;;;;;;;;;;;;4975025;28;7131;-77
2023/07/23 08:14:06;;;;;;;;;;;;;;;;;;4975540;28;8790;-78
2023/07/23 08:16:33;;;;;;;;;;;;;;;;;;4975758;28;8485;-79
2023/07/23 08:18:59;;;;;;;;;;;;;;;;;;4975678;28;7134;-77
2023/07/23 08:21:24;;;;;;;;;;;;;;;;;;4975612;28;7439;-77
2023/07/23 08:23:50;;;;;;;;;;;;;;;;;;4975352;28;8561;-79
2023/07/23 08:26:19;;;;;;;;;;;;;;;;;;4975592;28;8516;-78
2023/07/23 08:28:51;;;;;;;;;;;;;;;;;;4975387;28;8734;-78
2023/07/23 08:31:18;;;;;;;;;;;;;;;;;;4975242;28;7080;-77
2023/07/23 08:33:46;;;;;;;;;;;;;;;;;;4975306;28;7325;-77
2023/07/23 08:36:12;;;;;;;;;;;;;;;;;;4975448;28;8548;-77
2023/07/23 08:38:38;;;;;;;;;;;;;;;;;;4973936;28;8665;-79
2023/07/23 08:41:10;;;;;;;;;;;;;;;;;;4962368;28;8413;-77
2023/07/23 08:43:35;;;;;;;;;;;;;;;;;;4973468;28;7152;-78
2023/07/23 08:46:21;;;;;;;;;;;;;;;;;;4984632;28;8478;-76
2023/07/23 08:48:58;;;;;;;;;;;;;;;;;;4988573;28;7493;-76
2023/07/23 08:51:25;;;;;;;;;;;;;;;;;;4955561;28;8914;-77
2023/07/23 08:53:53;;;;;;;;;;;;;;;;;;4962502;28;7245;-77
2023/07/23 08:56:18;;;;;;;;;;;;;;;;;;4974565;28;8561;-78
2023/07/23 08:58:45;;;;;;;;;;;;;;;;;;4974395;28;8502;-78
2023/07/23 09:01:14;;;;;;;;;;;;;;;;;;4969692;28;7102;-78
2023/07/23 09:03:40;;;;;;;;;;;;;;;;;;4971731;28;7580;-76
2023/07/23 09:06:06;;;;;;;;;;;;;;;;;;4971349;28;8827;-78
2023/07/23 09:08:32;;;;;;;;;;;;;;;;;;4970803;28;7452;-77
2023/07/23 09:10:58;;;;;;;;;;;;;;;;;;4971904;28;9218;-78
2023/07/23 09:13:32;;;;;;;;;;;;;;;;;;4973869;28;9668;-77
2023/07/23 09:15:57;;;;;;;;;;;;;;;;;;4970482;28;7145;-77
2023/07/23 09:18:22;;;;;;;;;;;;;;;;;;4990791;28;7134;-79
2023/07/23 09:20:48;;;;;;;;;;;;;;;;;;4990212;28;8568;-77
2023/07/23 09:23:14;;;;;;;;;;;;;;;;;;4990224;28;7146;-78
2023/07/23 09:25:43;;;;;;;;;;;;;;;;;;4990680;28;8488;-77
2023/07/23 09:28:20;;;;;;;;;;;;;;;;;;4990493;28;9011;-77
2023/07/23 09:30:45;;;;;;;;;;;;;;;;;;4990373;28;8449;-78
2023/07/23 09:33:12;;;;;;;;;;;;;;;;;;4983840;28;7104;-78
2023/07/23 09:35:38;;;;;;;;;;;;;;;;;;4954659;28;7271;-77
2023/07/23 09:38:05;;;;;;;;;;;;;;;;;;4969955;28;7264;-79
2023/07/23 09:40:35;;;;;;;;;;;;;;;;;;4977739;28;8560;-75
2023/07/23 09:43:00;;;;;;;;;;;;;;;;;;4957716;28;8525;-77
2023/07/23 09:45:28;;;;;;;;;;;;;;;;;;4977197;28;7278;-78
2023/07/23 09:47:53;;;;;;;;;;;;;;;;;;4970580;28;8611;-77
2023/07/23 09:50:19;;;;;;;;;;;;;;;;;;4972024;28;8846;-77
2023/07/23 09:52:45;;;;;;;;;;;;;;;;;;4988402;28;7354;-78
2023/07/23 09:55:10;;;;;;;;;;;;;;;;;;4971963;28;8694;-77
2023/07/23 09:57:39;;;;;;;;;;;;;;;;;;4975928;28;8674;-77
2023/07/23 10:00:04;;;;;;;;;;;;;;;;;;4972269;28;7284;-78
2023/07/23 10:02:34;;;;;;;;;;;;;;;;;;4973212;28;8854;-78
2023/07/23 10:05:01;;;;;;;;;;;;;;;;;;4984107;28;7264;-76
2023/07/23 10:07:27;;;;;;;;;;;;;;;;;;4989212;28;7354;-78
2023/07/23 10:09:54;;;;;;;;;;;;;;;;;;4989385;28;7532;-77
2023/07/23 10:12:22;;;;;;;;;;;;;;;;;;4990009;28;8522;-79
2023/07/23 10:14:47;;;;;;;;;;;;;;;;;;4989163;28;8934;-81
2023/07/23 10:17:14;;;;;;;;;;;;;;;;;;4989168;28;8510;-79
2023/07/23 10:19:42;;;;;;;;;;;;;;;;;;4988686;28;8531;-80
2023/07/23 10:22:07;;;;;;;;;;;;;;;;;;4986155;28;7531;-78
2023/07/23 10:24:40;;;;;;;;;;;;;;;;;;4972682;28;7114;-77
2023/07/23 10:27:14;;;;;;;;;;;;;;;;;;4972910;28;7158;-78
2023/07/23 10:29:41;;;;;;;;;;;;;;;;;;4972915;28;9068;-78
2023/07/23 10:32:23;;;;;;;;;;;;;;;;;;4973086;28;7170;-77
2023/07/23 10:34:49;;;;;;;;;;;;;;;;;;4981217;28;8615;-78
2023/07/23 10:37:19;;;;;;;;;;;;;;;;;;4989054;28;8774;-78
2023/07/23 10:39:49;;;;;;;;;;;;;;;;;;4988649;28;7227;-79
2023/07/23 10:42:27;;;;;;;;;;;;;;;;;;4972331;28;8742;-76
2023/07/23 10:45:12;;;;;;;;;;;;;;;;;;4983245;28;8407;-77
2023/07/23 10:47:38;;;;;;;;;;;;;;;;;;4953053;29;7168;-77
2023/07/23 10:50:13;;;;;;;;;;;;;;;;;;4953394;29;8412;-77
2023/07/23 10:52:39;;;;;;;;;;;;;;;;;;4953654;29;8884;-78
2023/07/23 10:55:05;;;;;;;;;;;;;;;;;;4952789;28;7036;-78
2023/07/23 10:57:31;;;;;;;;;;;;;;;;;;4969429;28;8761;-78
2023/07/23 10:59:56;;;;;;;;;;;;;;;;;;4969034;28;7152;-76
2023/07/23 11:02:26;;;;;;;;;;;;;;;;;;4969633;28;8833;-78
2023/07/23 11:04:55;;;;;;;;;;;;;;;;;;4980666;28;8545;-79
2023/07/23 11:07:28;;;;;;;;;;;;;;;;;;4972356;28;8534;-77
2023/07/23 11:09:56;;;;;;;;;;;;;;;;;;4972298;28;8915;-78
2023/07/23 11:12:24;;;;;;;;;;;;;;;;;;4972519;28;8530;-78
2023/07/23 11:14:51;;;;;;;;;;;;;;;;;;4979915;28;8509;-77
2023/07/23 11:17:16;;;;;;;;;;;;;;;;;;4972409;28;8458;-77
2023/07/23 11:19:46;;;;;;;;;;;;;;;;;;4972390;28;7254;-76
2023/07/23 11:22:12;;;;;;;;;;;;;;;;;;4972565;28;7260;-78
2023/07/23 11:24:40;;;;;;;;;;;;;;;;;;4963017;28;8538;-78
2023/07/23 11:27:05;;;;;;;;;;;;;;;;;;4969241;28;7247;-77
2023/07/23 11:29:31;;;;;;;;;;;;;;;;;;4969326;28;8477;-78
2023/07/23 11:31:57;;;;;;;;;;;;;;;;;;4968697;28;8488;-77
2023/07/23 11:34:23;;;;;;;;;;;;;;;;;;4975582;28;8471;-78
2023/07/23 11:36:52;;;;;;;;;;;;;;;;;;4972419;28;7467;-78
2023/07/23 11:39:18;;;;;;;;;;;;;;;;;;4971526;28;7344;-77
2023/07/23 11:41:44;;;;;;;;;;;;;;;;;;4972199;28;8499;-77
2023/07/23 11:44:10;;;;;;;;;;;;;;;;;;4967157;28;9036;-76
2023/07/23 11:46:37;;;;;;;;;;;;;;;;;;4956065;28;7123;-78
2023/07/23 11:49:13;;;;;;;;;;;;;;;;;;4972693;28;8726;-77
2023/07/23 11:51:39;;;;;;;;;;;;;;;;;;4956552;28;8435;-77
2023/07/23 11:54:09;;;;;;;;;;;;;;;;;;4973995;28;8978;-77
2023/07/23 11:56:36;;;;;;;;;;;;;;;;;;4975456;28;7545;-77
2023/07/23 11:59:03;;;;;;;;;;;;;;;;;;4975565;28;7540;-78
2023/07/23 12:01:29;;;;;;;;;;;;;;;;;;4975777;28;8532;-77
2023/07/23 12:03:58;;;;;;;;;;;;;;;;;;4973167;28;8439;-77
2023/07/23 12:06:23;;;;;;;;;;;;;;;;;;4972374;28;7632;-78
2023/07/23 12:08:49;;;;;;;;;;;;;;;;;;4972134;28;8763;-76
2023/07/23 12:11:15;;;;;;;;;;;;;;;;;;4972269;28;8835;-78
2023/07/23 12:13:41;;;;;;;;;;;;;;;;;;4972240;28;8517;-78
2023/07/23 12:16:14;;;;;;;;;;;;;;;;;;4972284;28;7288;-78
2023/07/23 12:18:46;;;;;;;;;;;;;;;;;;4984990;28;7270;-78
2023/07/23 12:21:15;;;;;;;;;;;;;;;;;;4986083;28;8911;-79
2023/07/23 12:23:43;;;;;;;;;;;;;;;;;;4966695;28;8531;-78
2023/07/23 12:26:09;;;;;;;;;;;;;;;;;;4974914;28;7293;-77
2023/07/23 12:28:34;;;;;;;;;;;;;;;;;;4975031;28;8472;-78
2023/07/23 12:31:00;;;;;;;;;;;;;;;;;;4975004;28;8498;-77
2023/07/23 12:33:25;;;;;;;;;;;;;;;;;;4975243;28;8721;-79
2023/07/23 12:35:51;;;;;;;;;;;;;;;;;;4957970;28;7224;-77
2023/07/23 12:38:16;;;;;;;;;;;;;;;;;;4971478;28;8827;-80
2023/07/23 12:40:42;;;;;;;;;;;;;;;;;;4974248;28;7223;-77
2023/07/23 12:43:07;;;;;;;;;;;;;;;;;;4964260;28;7332;-79
2023/07/23 12:45:32;;;;;;;;;;;;;;;;;;4976372;28;8388;-77
2023/07/23 12:47:58;;;;;;;;;;;;;;;;;;4988065;28;8683;-78
2023/07/23 12:50:23;;;;;;;;;;;;;;;;;;4974618;28;8792;-77
2023/07/23 12:52:49;;;;;;;;;;;;;;;;;;4974887;28;7246;-79
2023/07/23 12:55:14;;;;;;;;;;;;;;;;;;4974529;28;8578;-77
2023/07/23 12:57:40;;;;;;;;;;;;;;;;;;4973551;28;8551;-77
2023/07/23 13:00:06;;;;;;;;;;;;;;;;;;4974001;28;8384;-78
2023/07/23 13:02:31;;;;;;;;;;;;;;;;;;4968497;28;8523;-78
2023/07/23 13:04:56;;;;;;;;;;;;;;;;;;4963466;28;7189;-78
2023/07/23 13:07:22;;;;;;;;;;;;;;;;;;4971141;28;8514;-75
2023/07/23 13:09:49;;;;;;;;;;;;;;;;;;4970897;28;7185;-78
2023/07/23 13:12:15;;;;;;;;;;;;;;;;;;4970852;28;7167;-80
2023/07/23 13:14:40;;;;;;;;;;;;;;;;;;4976887;28;8541;-78
2023/07/23 13:17:06;;;;;;;;;;;;;;;;;;4974431;28;8819;-79
2023/07/23 13:19:31;;;;;;;;;;;;;;;;;;4974236;28;8865;-76
2023/07/23 13:21:57;;;;;;;;;;;;;;;;;;4974196;28;8547;-77
2023/07/23 13:24:22;;;;;;;;;;;;;;;;;;4970347;28;8581;-78
2023/07/23 13:26:48;;;;;;;;;;;;;;;;;;4972002;28;8701;-81
2023/07/23 13:29:13;;;;;;;;;;;;;;;;;;4973331;28;8740;-78
2023/07/23 13:31:38;;;;;;;;;;;;;;;;;;4990991;28;7168;-78
2023/07/23 13:34:04;;;;;;;;;;;;;;;;;;4990218;28;8899;-75
2023/07/23 13:36:29;;;;;;;;;;;;;;;;;;4971853;28;8524;-79
2023/07/23 13:38:55;;;;;;;;;;;;;;;;;;4971481;28;8518;-77
2023/07/23 13:41:20;;;;;;;;;;;;;;;;;;4971538;28;8545;-78
2023/07/23 13:43:45;;;;;;;;;;;;;;;;;;4972141;28;8894;-78
2023/07/23 13:46:11;;;;;;;;;;;;;;;;;;4968018;28;8549;-77
2023/07/23 13:48:36;;;;;;;;;;;;;;;;;;4976160;28;8532;-79
2023/07/23 13:51:02;;;;;;;;;;;;;;;;;;4955233;28;8544;-78
2023/07/23 13:53:27;;;;;;;;;;;;;;;;;;4968696;28;8517;-78
2023/07/23 13:55:53;;;;;;;;;;;;;;;;;;4964532;28;9244;-79
2023/07/23 13:58:18;;;;;;;;;;;;;;;;;;4971875;28;8990;-78
2023/07/23 14:00:43;;;;;;;;;;;;;;;;;;4971031;28;8486;-77
2023/07/23 14:03:09;;;;;;;;;;;;;;;;;;4971086;28;8480;-78
2023/07/23 14:05:35;;;;;;;;;;;;;;;;;;4970977;28;8544;-77
2023/07/23 14:08:00;;;;;;;;;;;;;;;;;;4971050;28;7274;-77
2023/07/23 14:10:26;;;;;;;;;;;;;;;;;;4970703;28;8564;-79
2023/07/23 14:12:51;;;;;;;;;;;;;;;;;;4981315;28;8528;-77
2023/07/23 14:15:17;;;;;;;;;;;;;;;;;;4970139;28;7105;-78
2023/07/23 14:17:42;;;;;;;;;;;;;;;;;;4971620;28;7162;-76
2023/07/23 14:20:08;;;;;;;;;;;;;;;;;;4989027;28;8545;-76
2023/07/23 14:22:33;;;;;;;;;;;;;;;;;;4976665;28;7288;-76
2023/07/23 14:24:59;;;;;;;;;;;;;;;;;;4975713;28;7187;-77
2023/07/23 14:27:24;;;;;;;;;;;;;;;;;;4988286;28;8869;-79
2023/07/23 14:29:50;;;;;;;;;;;;;;;;;;4973118;28;7265;-80
2023/07/23 14:32:15;;;;;;;;;;;;;;;;;;4955017;28;8541;-78
2023/07/23 14:34:41;;;;;;;;;;;;;;;;;;4981433;28;7238;-79
2023/07/23 14:37:09;;;;;;;;;;;;;;;;;;4972345;28;8789;-77
2023/07/23 14:39:34;;;;;;;;;;;;;;;;;;4972311;28;7177;-77
2023/07/23 14:42:00;;;;;;;;;;;;;;;;;;4973219;28;8703;-79
2023/07/23 14:44:25;;;;;;;;;;;;;;;;;;4971497;28;8515;-77
2023/07/23 14:46:50;;;;;;;;;;;;;;;;;;4969374;28;8889;-76
2023/07/23 14:49:16;;;;;;;;;;;;;;;;;;4969348;28;9460;-76
2023/07/23 14:51:42;;;;;;;;;;;;;;;;;;4969238;28;8997;-78
2023/07/23 14:54:08;;;;;;;;;;;;;;;;;;4969243;28;7560;-78
2023/07/23 14:56:33;;;;;;;;;;;;;;;;;;4969313;28;7239;-79
2023/07/23 14:58:59;;;;;;;;;;;;;;;;;;4969397;28;8537;-79
2023/07/23 15:01:24;;;;;;;;;;;;;;;;;;4970086;28;7332;-80
2023/07/23 15:03:50;;;;;;;;;;;;;;;;;;4969554;28;8561;-81
2023/07/23 15:06:15;;;;;;;;;;;;;;;;;;4969934;28;8518;-79
2023/07/23 15:08:41;;;;;;;;;;;;;;;;;;4961600;28;8903;-79
2023/07/23 15:11:06;;;;;;;;;;;;;;;;;;4953299;29;8958;-78
2023/07/23 15:13:32;;;;;;;;;;;;;;;;;;4953741;29;7389;-79
2023/07/23 15:15:57;;;;;;;;;;;;;;;;;;4952702;28;8618;-78
2023/07/23 15:18:23;;;;;;;;;;;;;;;;;;4969600;28;8588;-80
2023/07/23 15:20:48;;;;;;;;;;;;;;;;;;4968735;28;7277;-79
2023/07/23 15:23:14;;;;;;;;;;;;;;;;;;4972918;28;9039;-78
2023/07/23 15:25:39;;;;;;;;;;;;;;;;;;4982763;28;7189;-78
2023/07/23 15:28:05;;;;;;;;;;;;;;;;;;4976181;28;8618;-78
2023/07/23 15:30:31;;;;;;;;;;;;;;;;;;4976113;28;7351;-78
2023/07/23 15:32:59;;;;;;;;;;;;;;;;;;4976080;28;8580;-80
2023/07/23 15:35:25;;;;;;;;;;;;;;;;;;4975787;28;7380;-80
2023/07/23 15:37:50;;;;;;;;;;;;;;;;;;4975654;28;8619;-80
2023/07/23 15:40:16;;;;;;;;;;;;;;;;;;4975907;28;8697;-80
2023/07/23 15:42:41;;;;;;;;;;;;;;;;;;4976001;28;8972;-77
2023/07/23 15:45:07;;;;;;;;;;;;;;;;;;4975797;28;8511;-78
2023/07/23 15:47:32;;;;;;;;;;;;;;;;;;4975556;28;8869;-77
2023/07/23 15:49:57;;;;;;;;;;;;;;;;;;4975665;28;8595;-78
2023/07/23 15:52:23;;;;;;;;;;;;;;;;;;4975791;28;8543;-78
2023/07/23 15:54:48;;;;;;;;;;;;;;;;;;4972806;28;8995;-78
2023/07/23 15:57:14;;;;;;;;;;;;;;;;;;4959165;28;8529;-89
2023/07/23 15:59:39;;;;;;;;;;;;;;;;;;4974917;28;7500;-85
2023/07/23 16:02:05;;;;;;;;;;;;;;;;;;4973440;28;7911;-86
2023/07/23 16:04:30;;;;;;;;;;;;;;;;;;4976791;28;7609;-89
2023/07/23 16:06:56;;;;;;;;;;;;;;;;;;4975303;28;7279;-89
2023/07/23 16:09:21;;;;;;;;;;;;;;;;;;4974017;28;8565;-89
2023/07/23 16:11:47;;;;;;;;;;;;;;;;;;4992306;28;8809;-87
2023/07/23 16:14:12;;;;;;;;;;;;;;;;;;4991702;28;8057;-87
2023/07/23 16:16:38;;;;;;;;;;;;;;;;;;4961761;28;8511;-87
2023/07/23 16:19:03;;;;;;;;;;;;;;;;;;4987114;28;8940;-87
2023/07/23 16:21:29;;;;;;;;;;;;;;;;;;4972007;28;7185;-88
2023/07/23 16:23:54;;;;;;;;;;;;;;;;;;4972281;28;8534;-90
2023/07/23 16:26:20;;;;;;;;;;;;;;;;;;4985436;28;7168;-89
2023/07/23 16:28:45;;;;;;;;;;;;;;;;;;4988172;28;8895;-88
2023/07/23 16:31:11;;;;;;;;;;;;;;;;;;4971709;28;7258;-89
2023/07/23 16:33:38;;;;;;;;;;;;;;;;;;4971657;28;8474;-92
2023/07/23 16:36:06;;;;;;;;;;;;;;;;;;4957128;28;7263;-87
2023/07/23 16:38:33;;;;;;;;;;;;;;;;;;4971874;28;7203;-88
2023/07/23 16:41:02;;;;;;;;;;;;;;;;;;4955307;28;9005;-89
2023/07/23 16:43:28;;;;;;;;;;;;;;;;;;4955238;28;8684;-88
2023/07/23 16:45:53;;;;;;;;;;;;;;;;;;4955552;28;8912;-88
2023/07/23 16:48:18;;;;;;;;;;;;;;;;;;4971620;28;8548;-92
2023/07/23 16:50:45;;;;;;;;;;;;;;;;;;4984387;28;7274;-87
2023/07/23 16:53:13;;;;;;;;;;;;;;;;;;4991220;28;7134;-89
2023/07/23 16:55:39;;;;;;;;;;;;;;;;;;4991113;28;9428;-84